sensor_id;sensor_type;location;lat;lon;timestamp;temperature;humidity
25280;DHT22;13225;47.804;12.116;2023-03-13T00:01:36;5.50;99.90
25280;DHT22;13225;47.804;12.116;2023-03-13T00:04:02;5.40;99.90
25280;DHT22;13225;47.804;12.116;2023-03-13T00:06:34;5.40;99.90
25280;DHT22;13225;47.804;12.116;2023-03-13T00:09:01;5.40;99.90
25280;DHT22;13225;47.804;12.116;2023-03-13T00:11:27;5.40;99.90
25280;DHT22;13225;47.804;12.116;2023-03-13T00:13:54;5.30;99.90
25280;DHT22;13225;47.804;12.116;2023-03-13T00:16:21;5.30;99.90
25280;DHT22;13225;47.804;12.116;2023-03-13T00:18:48;5.30;99.90
25280;DHT22;13225;47.804;12.116;2023-03-13T00:21:14;5.20;99.90
25280;DHT22;13225;47.804;12.116;2023-03-13T00:23:40;5.10;99.90
25280;DHT22;13225;47.804;12.116;2023-03-13T00:26:11;5.10;99.90
25280;DHT22;13225;47.804;12.116;2023-03-13T00:28:38;5.10;99.90
25280;DHT22;13225;47.804;12.116;2023-03-13T00:31:10;5.10;99.90
25280;DHT22;13225;47.804;12.116;2023-03-13T00:33:41;5.00;99.90
25280;DHT22;13225;47.804;12.116;2023-03-13T00:36:12;5.10;99.90
25280;DHT22;13225;47.804;12.116;2023-03-13T00:38:39;5.00;99.90
25280;DHT22;13225;47.804;12.116;2023-03-13T00:41:10;5.10;99.90
25280;DHT22;13225;47.804;12.116;2023-03-13T00:43:39;5.00;99.90
25280;DHT22;13225;47.804;12.116;2023-03-13T00:46:06;5.00;99.90
25280;DHT22;13225;47.804;12.116;2023-03-13T00:48:32;5.00;99.90
25280;DHT22;13225;47.804;12.116;2023-03-13T00:50:58;5.00;99.90
25280;DHT22;13225;47.804;12.116;2023-03-13T00:53:24;5.00;99.90
25280;DHT22;13225;47.804;12.116;2023-03-13T00:56:04;5.00;99.90
25280;DHT22;13225;47.804;12.116;2023-03-13T00:58:32;5.00;99.90
25280;DHT22;13225;47.804;12.116;2023-03-13T01:01:06;5.00;99.90
25280;DHT22;13225;47.804;12.116;2023-03-13T01:03:33;5.00;99.90
25280;DHT22;13225;47.804;12.116;2023-03-13T01:06:01;5.10;99.90
25280;DHT22;13225;47.804;12.116;2023-03-13T01:08:27;5.10;99.90
25280;DHT22;13225;47.804;12.116;2023-03-13T01:11:06;5.20;99.90
25280;DHT22;13225;47.804;12.116;2023-03-13T01:13:32;5.10;99.90
25280;DHT22;13225;47.804;12.116;2023-03-13T01:16:07;5.10;99.90
25280;DHT22;13225;47.804;12.116;2023-03-13T01:18:34;5.00;99.90
25280;DHT22;13225;47.804;12.116;2023-03-13T01:21:01;5.00;99.90
25280;DHT22;13225;47.804;12.116;2023-03-13T01:23:27;5.00;99.90
25280;DHT22;13225;47.804;12.116;2023-03-13T01:25:54;5.10;99.90
25280;DHT22;13225;47.804;12.116;2023-03-13T01:28:20;5.00;99.90
25280;DHT22;13225;47.804;12.116;2023-03-13T01:30:46;4.90;99.90
25280;DHT22;13225;47.804;12.116;2023-03-13T01:33:12;5.00;99.90
25280;DHT22;13225;47.804;12.116;2023-03-13T01:35:37;4.90;99.90
25280;DHT22;13225;47.804;12.116;2023-03-13T01:38:03;4.90;99.90
25280;DHT22;13225;47.804;12.116;2023-03-13T01:40:28;4.90;99.90
25280;DHT22;13225;47.804;12.116;2023-03-13T01:42:56;5.00;99.90
25280;DHT22;13225;47.804;12.116;2023-03-13T01:46:16;5.00;99.90
25280;DHT22;13225;47.804;12.116;2023-03-13T01:51:27;5.00;99.90
25280;DHT22;13225;47.804;12.116;2023-03-13T01:53:59;5.00;99.90
25280;DHT22;13225;47.804;12.116;2023-03-13T01:59:05;5.00;99.90
25280;DHT22;13225;47.804;12.116;2023-03-13T02:01:33;4.90;99.90
25280;DHT22;13225;47.804;12.116;2023-03-13T02:03:59;4.90;99.90
25280;DHT22;13225;47.804;12.116;2023-03-13T02:06:28;4.80;99.90
25280;DHT22;13225;47.804;12.116;2023-03-13T02:08:58;4.90;99.90
25280;DHT22;13225;47.804;12.116;2023-03-13T02:14:06;4.80;99.90
25280;DHT22;13225;47.804;12.116;2023-03-13T02:16:33;4.70;99.90
25280;DHT22;13225;47.804;12.116;2023-03-13T02:19:00;4.70;99.90
25280;DHT22;13225;47.804;12.116;2023-03-13T02:21:37;4.70;99.90
25280;DHT22;13225;47.804;12.116;2023-03-13T02:26:36;4.70;99.90
25280;DHT22;13225;47.804;12.116;2023-03-13T02:29:01;4.80;99.90
25280;DHT22;13225;47.804;12.116;2023-03-13T02:31:27;4.70;99.90
25280;DHT22;13225;47.804;12.116;2023-03-13T02:33:54;4.60;99.90
25280;DHT22;13225;47.804;12.116;2023-03-13T02:36:20;4.50;99.90
25280;DHT22;13225;47.804;12.116;2023-03-13T02:38:52;4.50;99.90
25280;DHT22;13225;47.804;12.116;2023-03-13T02:41:20;4.50;99.90
25280;DHT22;13225;47.804;12.116;2023-03-13T02:43:47;4.60;99.90
25280;DHT22;13225;47.804;12.116;2023-03-13T02:46:16;4.70;99.90
25280;DHT22;13225;47.804;12.116;2023-03-13T02:48:44;4.70;99.90
25280;DHT22;13225;47.804;12.116;2023-03-13T02:53:50;4.80;99.90
25280;DHT22;13225;47.804;12.116;2023-03-13T02:56:19;4.70;99.90
25280;DHT22;13225;47.804;12.116;2023-03-13T02:58:46;4.60;99.90
25280;DHT22;13225;47.804;12.116;2023-03-13T03:01:11;4.60;99.90
25280;DHT22;13225;47.804;12.116;2023-03-13T03:03:37;4.60;99.90
25280;DHT22;13225;47.804;12.116;2023-03-13T03:06:04;4.60;99.90
25280;DHT22;13225;47.804;12.116;2023-03-13T03:08:30;4.60;99.90
25280;DHT22;13225;47.804;12.116;2023-03-13T03:10:55;4.60;99.90
25280;DHT22;13225;47.804;12.116;2023-03-13T03:13:22;4.60;99.90
25280;DHT22;13225;47.804;12.116;2023-03-13T03:15:47;4.50;99.90
25280;DHT22;13225;47.804;12.116;2023-03-13T03:18:13;4.40;99.90
25280;DHT22;13225;47.804;12.116;2023-03-13T03:20:39;4.40;99.90
25280;DHT22;13225;47.804;12.116;2023-03-13T03:23:04;4.40;99.90
25280;DHT22;13225;47.804;12.116;2023-03-13T03:25:30;4.30;99.90
25280;DHT22;13225;47.804;12.116;2023-03-13T03:27:55;4.30;99.90
25280;DHT22;13225;47.804;12.116;2023-03-13T03:30:21;4.30;99.90
25280;DHT22;13225;47.804;12.116;2023-03-13T03:32:46;4.30;99.90
25280;DHT22;13225;47.804;12.116;2023-03-13T03:35:12;4.30;99.90
25280;DHT22;13225;47.804;12.116;2023-03-13T03:37:38;4.20;99.90
25280;DHT22;13225;47.804;12.116;2023-03-13T03:40:03;4.20;99.90
25280;DHT22;13225;47.804;12.116;2023-03-13T03:42:33;4.20;99.90
25280;DHT22;13225;47.804;12.116;2023-03-13T03:44:58;4.20;99.90
25280;DHT22;13225;47.804;12.116;2023-03-13T03:47:24;4.20;99.90
25280;DHT22;13225;47.804;12.116;2023-03-13T03:49:49;4.20;99.90
25280;DHT22;13225;47.804;12.116;2023-03-13T03:52:15;4.10;99.90
25280;DHT22;13225;47.804;12.116;2023-03-13T03:54:41;4.10;99.90
25280;DHT22;13225;47.804;12.116;2023-03-13T03:57:07;4.10;99.90
25280;DHT22;13225;47.804;12.116;2023-03-13T03:59:32;4.10;99.90
25280;DHT22;13225;47.804;12.116;2023-03-13T04:01:58;4.30;99.90
25280;DHT22;13225;47.804;12.116;2023-03-13T04:04:23;4.30;99.90
25280;DHT22;13225;47.804;12.116;2023-03-13T04:06:49;4.30;99.90
25280;DHT22;13225;47.804;12.116;2023-03-13T04:09:15;4.30;99.90
25280;DHT22;13225;47.804;12.116;2023-03-13T04:11:40;4.30;99.90
25280;DHT22;13225;47.804;12.116;2023-03-13T04:14:06;4.50;99.90
25280;DHT22;13225;47.804;12.116;2023-03-13T04:16:32;4.50;99.90
25280;DHT22;13225;47.804;12.116;2023-03-13T04:18:57;4.50;99.90
25280;DHT22;13225;47.804;12.116;2023-03-13T04:21:23;4.50;99.90
25280;DHT22;13225;47.804;12.116;2023-03-13T04:23:48;4.50;99.90
25280;DHT22;13225;47.804;12.116;2023-03-13T04:26:14;4.50;99.90
25280;DHT22;13225;47.804;12.116;2023-03-13T04:28:39;4.60;99.90
25280;DHT22;13225;47.804;12.116;2023-03-13T04:31:05;4.70;99.90
25280;DHT22;13225;47.804;12.116;2023-03-13T04:33:30;4.60;99.90
25280;DHT22;13225;47.804;12.116;2023-03-13T04:35:56;4.70;99.90
25280;DHT22;13225;47.804;12.116;2023-03-13T04:38:22;4.60;99.90
25280;DHT22;13225;47.804;12.116;2023-03-13T04:40:47;4.70;99.90
25280;DHT22;13225;47.804;12.116;2023-03-13T04:43:13;4.70;99.90
25280;DHT22;13225;47.804;12.116;2023-03-13T04:45:38;4.70;99.90
25280;DHT22;13225;47.804;12.116;2023-03-13T04:48:04;4.70;99.90
25280;DHT22;13225;47.804;12.116;2023-03-13T04:50:30;4.70;99.90
25280;DHT22;13225;47.804;12.116;2023-03-13T04:52:56;4.70;99.90
25280;DHT22;13225;47.804;12.116;2023-03-13T04:55:22;4.70;99.90
25280;DHT22;13225;47.804;12.116;2023-03-13T04:57:48;4.70;99.90
25280;DHT22;13225;47.804;12.116;2023-03-13T05:00:14;4.70;99.90
25280;DHT22;13225;47.804;12.116;2023-03-13T05:02:39;4.70;99.90
25280;DHT22;13225;47.804;12.116;2023-03-13T05:05:05;4.70;99.90
25280;DHT22;13225;47.804;12.116;2023-03-13T05:07:30;4.60;99.90
25280;DHT22;13225;47.804;12.116;2023-03-13T05:09:56;4.60;99.90
25280;DHT22;13225;47.804;12.116;2023-03-13T05:12:21;4.60;99.90
25280;DHT22;13225;47.804;12.116;2023-03-13T05:14:47;4.60;99.90
25280;DHT22;13225;47.804;12.116;2023-03-13T05:17:14;4.60;99.90
25280;DHT22;13225;47.804;12.116;2023-03-13T05:19:42;4.60;99.90
25280;DHT22;13225;47.804;12.116;2023-03-13T05:22:07;4.70;99.90
25280;DHT22;13225;47.804;12.116;2023-03-13T05:24:33;4.70;99.90
25280;DHT22;13225;47.804;12.116;2023-03-13T05:26:58;4.80;99.90
25280;DHT22;13225;47.804;12.116;2023-03-13T05:29:24;4.90;99.90
25280;DHT22;13225;47.804;12.116;2023-03-13T05:31:49;4.90;99.90
25280;DHT22;13225;47.804;12.116;2023-03-13T05:34:15;5.00;99.90
25280;DHT22;13225;47.804;12.116;2023-03-13T05:36:40;5.00;99.90
25280;DHT22;13225;47.804;12.116;2023-03-13T05:39:06;5.10;99.90
25280;DHT22;13225;47.804;12.116;2023-03-13T05:41:31;5.10;99.90
25280;DHT22;13225;47.804;12.116;2023-03-13T05:43:57;5.10;99.90
25280;DHT22;13225;47.804;12.116;2023-03-13T05:46:23;5.10;99.90
25280;DHT22;13225;47.804;12.116;2023-03-13T05:48:48;5.10;99.90
25280;DHT22;13225;47.804;12.116;2023-03-13T05:51:14;5.10;99.90
25280;DHT22;13225;47.804;12.116;2023-03-13T05:53:39;5.20;99.90
25280;DHT22;13225;47.804;12.116;2023-03-13T05:56:05;5.20;99.90
25280;DHT22;13225;47.804;12.116;2023-03-13T05:58:31;5.20;99.90
25280;DHT22;13225;47.804;12.116;2023-03-13T06:00:57;5.20;99.90
25280;DHT22;13225;47.804;12.116;2023-03-13T06:03:22;5.20;99.90
25280;DHT22;13225;47.804;12.116;2023-03-13T06:05:48;5.30;99.90
25280;DHT22;13225;47.804;12.116;2023-03-13T06:08:13;5.40;99.90
25280;DHT22;13225;47.804;12.116;2023-03-13T06:10:39;5.40;99.90
25280;DHT22;13225;47.804;12.116;2023-03-13T06:13:04;5.40;99.90
25280;DHT22;13225;47.804;12.116;2023-03-13T06:15:30;5.40;99.90
25280;DHT22;13225;47.804;12.116;2023-03-13T06:17:56;5.30;99.90
25280;DHT22;13225;47.804;12.116;2023-03-13T06:20:21;5.30;99.90
25280;DHT22;13225;47.804;12.116;2023-03-13T06:22:47;5.30;99.90
25280;DHT22;13225;47.804;12.116;2023-03-13T06:25:12;5.30;99.90
25280;DHT22;13225;47.804;12.116;2023-03-13T06:27:40;5.30;99.90
25280;DHT22;13225;47.804;12.116;2023-03-13T06:30:07;5.30;99.90
25280;DHT22;13225;47.804;12.116;2023-03-13T06:32:33;5.30;99.90
25280;DHT22;13225;47.804;12.116;2023-03-13T06:34:58;5.40;99.90
25280;DHT22;13225;47.804;12.116;2023-03-13T06:37:24;5.50;99.90
25280;DHT22;13225;47.804;12.116;2023-03-13T06:39:50;5.60;99.90
25280;DHT22;13225;47.804;12.116;2023-03-13T06:42:15;5.70;99.90
25280;DHT22;13225;47.804;12.116;2023-03-13T06:44:41;5.80;99.90
25280;DHT22;13225;47.804;12.116;2023-03-13T06:47:06;6.00;99.90
25280;DHT22;13225;47.804;12.116;2023-03-13T06:49:33;6.10;99.90
25280;DHT22;13225;47.804;12.116;2023-03-13T06:51:59;6.30;99.90
25280;DHT22;13225;47.804;12.116;2023-03-13T06:54:24;6.30;99.90
25280;DHT22;13225;47.804;12.116;2023-03-13T06:56:50;6.40;99.90
25280;DHT22;13225;47.804;12.116;2023-03-13T06:59:15;6.50;99.90
25280;DHT22;13225;47.804;12.116;2023-03-13T07:01:41;6.50;99.90
25280;DHT22;13225;47.804;12.116;2023-03-13T07:04:11;6.40;99.90
25280;DHT22;13225;47.804;12.116;2023-03-13T07:06:37;6.40;99.90
25280;DHT22;13225;47.804;12.116;2023-03-13T07:09:02;6.40;99.90
25280;DHT22;13225;47.804;12.116;2023-03-13T07:11:29;6.50;99.90
25280;DHT22;13225;47.804;12.116;2023-03-13T07:13:55;6.50;99.90
25280;DHT22;13225;47.804;12.116;2023-03-13T07:16:21;6.50;99.90
25280;DHT22;13225;47.804;12.116;2023-03-13T07:18:47;6.60;99.90
25280;DHT22;13225;47.804;12.116;2023-03-13T07:21:13;6.60;99.90
25280;DHT22;13225;47.804;12.116;2023-03-13T07:23:38;6.70;99.90
25280;DHT22;13225;47.804;12.116;2023-03-13T07:26:07;6.70;99.90
25280;DHT22;13225;47.804;12.116;2023-03-13T07:28:34;6.80;99.90
25280;DHT22;13225;47.804;12.116;2023-03-13T07:31:11;6.80;99.90
25280;DHT22;13225;47.804;12.116;2023-03-13T07:33:37;6.70;99.90
25280;DHT22;13225;47.804;12.116;2023-03-13T07:36:03;6.60;99.90
25280;DHT22;13225;47.804;12.116;2023-03-13T07:38:29;6.60;99.90
25280;DHT22;13225;47.804;12.116;2023-03-13T07:40:55;6.70;99.90
25280;DHT22;13225;47.804;12.116;2023-03-13T07:43:23;6.70;99.90
25280;DHT22;13225;47.804;12.116;2023-03-13T07:46:00;6.70;99.90
25280;DHT22;13225;47.804;12.116;2023-03-13T07:48:44;6.80;99.90
25280;DHT22;13225;47.804;12.116;2023-03-13T07:51:14;6.80;99.90
25280;DHT22;13225;47.804;12.116;2023-03-13T07:53:41;6.80;99.90
25280;DHT22;13225;47.804;12.116;2023-03-13T07:56:09;6.70;99.90
25280;DHT22;13225;47.804;12.116;2023-03-13T07:58:37;6.70;99.90
25280;DHT22;13225;47.804;12.116;2023-03-13T08:01:11;6.70;99.90
25280;DHT22;13225;47.804;12.116;2023-03-13T08:03:37;6.70;99.90
25280;DHT22;13225;47.804;12.116;2023-03-13T08:06:06;6.90;99.90
25280;DHT22;13225;47.804;12.116;2023-03-13T08:08:32;6.90;99.90
25280;DHT22;13225;47.804;12.116;2023-03-13T08:11:05;7.10;99.90
25280;DHT22;13225;47.804;12.116;2023-03-13T08:13:32;7.10;99.90
25280;DHT22;13225;47.804;12.116;2023-03-13T08:16:14;7.10;99.90
25280;DHT22;13225;47.804;12.116;2023-03-13T08:18:45;7.20;99.90
25280;DHT22;13225;47.804;12.116;2023-03-13T08:21:23;7.20;99.90
25280;DHT22;13225;47.804;12.116;2023-03-13T08:23:52;7.30;99.90
25280;DHT22;13225;47.804;12.116;2023-03-13T08:26:20;7.40;99.90
25280;DHT22;13225;47.804;12.116;2023-03-13T08:28:47;7.40;99.90
25280;DHT22;13225;47.804;12.116;2023-03-13T08:31:15;7.50;99.90
25280;DHT22;13225;47.804;12.116;2023-03-13T08:33:42;7.60;99.90
25280;DHT22;13225;47.804;12.116;2023-03-13T08:36:13;7.60;99.90
25280;DHT22;13225;47.804;12.116;2023-03-13T08:38:39;7.70;99.90
25280;DHT22;13225;47.804;12.116;2023-03-13T08:41:07;7.60;99.90
25280;DHT22;13225;47.804;12.116;2023-03-13T08:43:33;7.50;99.90
25280;DHT22;13225;47.804;12.116;2023-03-13T08:45:59;7.50;99.90
25280;DHT22;13225;47.804;12.116;2023-03-13T08:48:24;7.50;99.90
25280;DHT22;13225;47.804;12.116;2023-03-13T08:51:04;7.60;99.90
25280;DHT22;13225;47.804;12.116;2023-03-13T08:53:31;7.60;99.90
25280;DHT22;13225;47.804;12.116;2023-03-13T08:55:56;7.60;99.90
25280;DHT22;13225;47.804;12.116;2023-03-13T08:58:23;7.60;99.90
25280;DHT22;13225;47.804;12.116;2023-03-13T09:00:48;7.60;99.90
25280;DHT22;13225;47.804;12.116;2023-03-13T09:03:14;7.60;99.90
25280;DHT22;13225;47.804;12.116;2023-03-13T09:05:40;7.70;99.90
25280;DHT22;13225;47.804;12.116;2023-03-13T09:08:05;7.70;99.90
25280;DHT22;13225;47.804;12.116;2023-03-13T09:10:34;7.70;99.90
25280;DHT22;13225;47.804;12.116;2023-03-13T09:13:00;7.80;99.90
25280;DHT22;13225;47.804;12.116;2023-03-13T09:15:26;7.80;99.90
25280;DHT22;13225;47.804;12.116;2023-03-13T09:17:52;7.90;99.90
25280;DHT22;13225;47.804;12.116;2023-03-13T09:20:18;7.90;99.90
25280;DHT22;13225;47.804;12.116;2023-03-13T09:22:44;7.90;99.90
25280;DHT22;13225;47.804;12.116;2023-03-13T09:25:10;7.90;99.90
25280;DHT22;13225;47.804;12.116;2023-03-13T09:27:36;7.90;99.90
25280;DHT22;13225;47.804;12.116;2023-03-13T09:30:02;8.00;99.90
25280;DHT22;13225;47.804;12.116;2023-03-13T09:32:28;8.10;99.90
25280;DHT22;13225;47.804;12.116;2023-03-13T09:34:54;8.20;99.90
25280;DHT22;13225;47.804;12.116;2023-03-13T09:37:20;8.20;99.90
25280;DHT22;13225;47.804;12.116;2023-03-13T09:39:46;8.30;99.90
25280;DHT22;13225;47.804;12.116;2023-03-13T09:42:15;8.30;99.90
25280;DHT22;13225;47.804;12.116;2023-03-13T09:45:03;8.30;99.90
25280;DHT22;13225;47.804;12.116;2023-03-13T09:47:47;8.40;99.90
25280;DHT22;13225;47.804;12.116;2023-03-13T09:50:20;8.50;99.90
25280;DHT22;13225;47.804;12.116;2023-03-13T09:52:50;8.50;99.90
25280;DHT22;13225;47.804;12.116;2023-03-13T09:55:30;8.80;99.90
25280;DHT22;13225;47.804;12.116;2023-03-13T09:58:13;9.00;99.90
25280;DHT22;13225;47.804;12.116;2023-03-13T10:00:44;9.10;99.90
25280;DHT22;13225;47.804;12.116;2023-03-13T10:03:15;9.40;99.90
25280;DHT22;13225;47.804;12.116;2023-03-13T10:05:46;9.60;99.90
25280;DHT22;13225;47.804;12.116;2023-03-13T10:08:19;9.50;99.90
25280;DHT22;13225;47.804;12.116;2023-03-13T10:13:21;9.50;99.90
25280;DHT22;13225;47.804;12.116;2023-03-13T10:15:55;9.50;99.90
25280;DHT22;13225;47.804;12.116;2023-03-13T10:18:22;9.50;99.90
25280;DHT22;13225;47.804;12.116;2023-03-13T10:20:51;9.50;99.90
25280;DHT22;13225;47.804;12.116;2023-03-13T10:23:21;9.50;99.90
25280;DHT22;13225;47.804;12.116;2023-03-13T10:25:48;9.70;99.90
25280;DHT22;13225;47.804;12.116;2023-03-13T10:28:16;10.00;99.90
25280;DHT22;13225;47.804;12.116;2023-03-13T10:30:49;10.40;99.90
25280;DHT22;13225;47.804;12.116;2023-03-13T10:33:26;10.70;99.90
25280;DHT22;13225;47.804;12.116;2023-03-13T10:36:04;10.90;99.90
25280;DHT22;13225;47.804;12.116;2023-03-13T10:38:53;11.00;99.90
25280;DHT22;13225;47.804;12.116;2023-03-13T10:41:35;11.10;99.90
25280;DHT22;13225;47.804;12.116;2023-03-13T10:44:13;11.10;99.90
25280;DHT22;13225;47.804;12.116;2023-03-13T10:46:41;11.20;99.90
25280;DHT22;13225;47.804;12.116;2023-03-13T10:49:15;11.30;99.90
25280;DHT22;13225;47.804;12.116;2023-03-13T10:51:46;11.40;99.90
25280;DHT22;13225;47.804;12.116;2023-03-13T10:54:15;11.30;99.90
25280;DHT22;13225;47.804;12.116;2023-03-13T10:56:41;11.70;99.90
25280;DHT22;13225;47.804;12.116;2023-03-13T10:59:33;11.90;99.90
25280;DHT22;13225;47.804;12.116;2023-03-13T11:02:16;12.10;99.90
25280;DHT22;13225;47.804;12.116;2023-03-13T11:04:43;12.20;99.90
25280;DHT22;13225;47.804;12.116;2023-03-13T11:07:24;12.40;99.90
25280;DHT22;13225;47.804;12.116;2023-03-13T11:13:03;12.20;99.90
25280;DHT22;13225;47.804;12.116;2023-03-13T11:15:38;12.60;99.90
25280;DHT22;13225;47.804;12.116;2023-03-13T11:20:33;12.70;99.90
25280;DHT22;13225;47.804;12.116;2023-03-13T11:23:10;12.70;99.90
25280;DHT22;13225;47.804;12.116;2023-03-13T11:31:23;12.20;99.90
25280;DHT22;13225;47.804;12.116;2023-03-13T11:34:05;12.40;99.90
25280;DHT22;13225;47.804;12.116;2023-03-13T11:56:45;13.20;99.90
25280;DHT22;13225;47.804;12.116;2023-03-13T12:02:22;13.80;99.90
25280;DHT22;13225;47.804;12.116;2023-03-13T12:05:02;14.10;99.90
25280;DHT22;13225;47.804;12.116;2023-03-13T12:07:38;14.50;99.90
25280;DHT22;13225;47.804;12.116;2023-03-13T12:10:10;14.90;99.90
25280;DHT22;13225;47.804;12.116;2023-03-13T12:12:40;15.00;99.90
25280;DHT22;13225;47.804;12.116;2023-03-13T12:15:30;15.30;99.90
25280;DHT22;13225;47.804;12.116;2023-03-13T12:18:12;15.30;99.90
25280;DHT22;13225;47.804;12.116;2023-03-13T12:20:46;15.20;99.90
25280;DHT22;13225;47.804;12.116;2023-03-13T12:26:25;15.90;99.90
25280;DHT22;13225;47.804;12.116;2023-03-13T12:31:56;16.50;99.90
25280;DHT22;13225;47.804;12.116;2023-03-13T12:37:38;16.70;99.90
25280;DHT22;13225;47.804;12.116;2023-03-13T12:43:23;17.20;99.90
25280;DHT22;13225;47.804;12.116;2023-03-13T12:59:47;18.30;99.90
25280;DHT22;13225;47.804;12.116;2023-03-13T13:02:22;17.60;99.90
25280;DHT22;13225;47.804;12.116;2023-03-13T13:04:50;17.70;99.90
25280;DHT22;13225;47.804;12.116;2023-03-13T13:07:31;18.40;99.90
25280;DHT22;13225;47.804;12.116;2023-03-13T13:10:02;18.30;99.90
25280;DHT22;13225;47.804;12.116;2023-03-13T13:12:29;18.90;99.90
25280;DHT22;13225;47.804;12.116;2023-03-13T13:14:58;19.20;99.90
25280;DHT22;13225;47.804;12.116;2023-03-13T13:20:43;19.30;95.20
25280;DHT22;13225;47.804;12.116;2023-03-13T13:23:30;18.90;96.60
25280;DHT22;13225;47.804;12.116;2023-03-13T13:28:55;18.80;97.80
25280;DHT22;13225;47.804;12.116;2023-03-13T13:36:55;18.80;96.70
25280;DHT22;13225;47.804;12.116;2023-03-13T13:39:45;18.80;95.90
25280;DHT22;13225;47.804;12.116;2023-03-13T13:47:45;19.40;94.20
25280;DHT22;13225;47.804;12.116;2023-03-13T13:50:27;19.40;93.70
25280;DHT22;13225;47.804;12.116;2023-03-13T13:53:26;19.40;93.60
25280;DHT22;13225;47.804;12.116;2023-03-13T13:55:53;18.70;94.50
25280;DHT22;13225;47.804;12.116;2023-03-13T13:58:27;19.30;94.90
25280;DHT22;13225;47.804;12.116;2023-03-13T14:01:01;19.40;93.70
25280;DHT22;13225;47.804;12.116;2023-03-13T14:03:30;19.20;93.30
25280;DHT22;13225;47.804;12.116;2023-03-13T14:06:03;19.10;94.40
25280;DHT22;13225;47.804;12.116;2023-03-13T14:08:37;19.50;94.60
25280;DHT22;13225;47.804;12.116;2023-03-13T14:14:17;19.00;93.70
25280;DHT22;13225;47.804;12.116;2023-03-13T14:16:50;19.00;94.30
25280;DHT22;13225;47.804;12.116;2023-03-13T14:19:28;19.00;94.30
25280;DHT22;13225;47.804;12.116;2023-03-13T14:22:08;19.20;94.70
25280;DHT22;13225;47.804;12.116;2023-03-13T14:24:34;18.90;93.50
25280;DHT22;13225;47.804;12.116;2023-03-13T14:27:01;19.00;93.70
25280;DHT22;13225;47.804;12.116;2023-03-13T14:29:27;19.40;93.40
25280;DHT22;13225;47.804;12.116;2023-03-13T14:31:58;19.50;92.50
25280;DHT22;13225;47.804;12.116;2023-03-13T14:34:24;19.50;92.60
25280;DHT22;13225;47.804;12.116;2023-03-13T14:36:52;19.40;92.90
25280;DHT22;13225;47.804;12.116;2023-03-13T14:39:36;19.60;92.40
25280;DHT22;13225;47.804;12.116;2023-03-13T14:42:10;19.50;91.50
25280;DHT22;13225;47.804;12.116;2023-03-13T14:44:36;19.10;93.10
25280;DHT22;13225;47.804;12.116;2023-03-13T14:47:07;18.90;92.50
25280;DHT22;13225;47.804;12.116;2023-03-13T14:49:33;18.80;92.50
25280;DHT22;13225;47.804;12.116;2023-03-13T14:52:05;19.50;92.50
25280;DHT22;13225;47.804;12.116;2023-03-13T14:54:31;19.90;90.70
25280;DHT22;13225;47.804;12.116;2023-03-13T14:57:21;20.30;90.50
25280;DHT22;13225;47.804;12.116;2023-03-13T14:59:48;20.40;90.40
25280;DHT22;13225;47.804;12.116;2023-03-13T15:02:23;21.10;89.40
25280;DHT22;13225;47.804;12.116;2023-03-13T15:05:03;20.80;89.10
25280;DHT22;13225;47.804;12.116;2023-03-13T15:07:44;20.60;90.30
25280;DHT22;13225;47.804;12.116;2023-03-13T15:10:23;20.30;89.70
25280;DHT22;13225;47.804;12.116;2023-03-13T15:12:49;20.30;90.00
25280;DHT22;13225;47.804;12.116;2023-03-13T15:15:16;19.80;90.60
25280;DHT22;13225;47.804;12.116;2023-03-13T15:17:42;19.60;90.50
25280;DHT22;13225;47.804;12.116;2023-03-13T15:20:12;19.60;91.40
25280;DHT22;13225;47.804;12.116;2023-03-13T15:22:40;19.50;91.30
25280;DHT22;13225;47.804;12.116;2023-03-13T15:25:17;19.30;91.50
25280;DHT22;13225;47.804;12.116;2023-03-13T15:27:43;18.80;92.10
25280;DHT22;13225;47.804;12.116;2023-03-13T15:30:22;18.40;92.70
25280;DHT22;13225;47.804;12.116;2023-03-13T15:32:49;17.90;93.20
25280;DHT22;13225;47.804;12.116;2023-03-13T15:35:29;17.60;93.90
25280;DHT22;13225;47.804;12.116;2023-03-13T15:37:56;17.20;94.10
25280;DHT22;13225;47.804;12.116;2023-03-13T15:40:23;17.00;94.10
25280;DHT22;13225;47.804;12.116;2023-03-13T15:42:49;16.90;94.30
25280;DHT22;13225;47.804;12.116;2023-03-13T15:45:15;16.90;95.50
25280;DHT22;13225;47.804;12.116;2023-03-13T15:47:41;16.90;94.60
25280;DHT22;13225;47.804;12.116;2023-03-13T15:50:17;16.90;94.40
25280;DHT22;13225;47.804;12.116;2023-03-13T15:52:43;16.80;94.70
25280;DHT22;13225;47.804;12.116;2023-03-13T15:55:12;16.80;94.80
25280;DHT22;13225;47.804;12.116;2023-03-13T15:57:41;16.80;95.60
25280;DHT22;13225;47.804;12.116;2023-03-13T16:00:26;16.70;96.50
25280;DHT22;13225;47.804;12.116;2023-03-13T16:02:52;16.50;97.20
25280;DHT22;13225;47.804;12.116;2023-03-13T16:05:18;16.50;97.40
25280;DHT22;13225;47.804;12.116;2023-03-13T16:07:43;16.30;98.40
25280;DHT22;13225;47.804;12.116;2023-03-13T16:10:19;16.20;99.30
25280;DHT22;13225;47.804;12.116;2023-03-13T16:12:45;16.20;99.60
25280;DHT22;13225;47.804;12.116;2023-03-13T16:15:10;16.50;99.10
25280;DHT22;13225;47.804;12.116;2023-03-13T16:17:36;16.60;98.40
25280;DHT22;13225;47.804;12.116;2023-03-13T16:20:02;16.70;98.90
25280;DHT22;13225;47.804;12.116;2023-03-13T16:22:29;16.60;98.70
25280;DHT22;13225;47.804;12.116;2023-03-13T16:24:55;16.30;99.10
25280;DHT22;13225;47.804;12.116;2023-03-13T16:27:21;16.10;99.10
25280;DHT22;13225;47.804;12.116;2023-03-13T16:29:47;15.90;99.90
25280;DHT22;13225;47.804;12.116;2023-03-13T16:32:15;15.70;99.90
25280;DHT22;13225;47.804;12.116;2023-03-13T16:34:41;15.50;99.90
25280;DHT22;13225;47.804;12.116;2023-03-13T16:37:15;15.30;99.90
25280;DHT22;13225;47.804;12.116;2023-03-13T16:39:41;15.10;99.90
25280;DHT22;13225;47.804;12.116;2023-03-13T16:42:08;14.90;99.90
25280;DHT22;13225;47.804;12.116;2023-03-13T16:44:34;14.80;99.90
25280;DHT22;13225;47.804;12.116;2023-03-13T16:47:00;14.60;99.90
25280;DHT22;13225;47.804;12.116;2023-03-13T16:49:25;14.40;99.90
25280;DHT22;13225;47.804;12.116;2023-03-13T16:51:51;14.30;99.90
25280;DHT22;13225;47.804;12.116;2023-03-13T16:54:17;14.20;99.90
25280;DHT22;13225;47.804;12.116;2023-03-13T16:56:42;14.20;99.90
25280;DHT22;13225;47.804;12.116;2023-03-13T16:59:14;14.00;99.90
25280;DHT22;13225;47.804;12.116;2023-03-13T17:01:40;13.90;99.90
25280;DHT22;13225;47.804;12.116;2023-03-13T17:04:06;13.90;99.90
25280;DHT22;13225;47.804;12.116;2023-03-13T17:06:34;13.90;99.90
25280;DHT22;13225;47.804;12.116;2023-03-13T17:09:00;13.70;99.90
25280;DHT22;13225;47.804;12.116;2023-03-13T17:11:27;13.60;99.90
25280;DHT22;13225;47.804;12.116;2023-03-13T17:13:53;13.40;99.90